Time;durP1;ratioP1;P1;durP2;ratioP2;P2;SDS_P1;SDS_P2;PMS_P1;PMS_P2;Temp;Humidity;BMP_temperature;BMP_pressure;BME280_temperature;BME280_humidity;BME280_pressure;Samples;Min_cycle;Max_cycle;Signal;HPM_P1;HPM_P2
2022/07/10 00:01:32;;;;;;;;;;;;;;;;;;5055364;28;19921;-24
2022/07/10 00:03:58;;;;;;;;;;;;;;;;;;5055409;28;19908;-24
2022/07/10 00:06:24;;;;;;;;;;;;;;;;;;5055371;28;19920;-23
2022/07/10 00:08:50;;;;;;;;;;;;;;;;;;5055348;28;20271;-24
2022/07/10 00:11:16;;;;;;;;;;;;;;;;;;5055255;28;19913;-27
2022/07/10 00:13:42;;;;;;;;;;;;;;;;;;5055187;28;19913;-24
2022/07/10 00:16:08;;;;;;;;;;;;;;;;;;5055523;28;19913;-24
2022/07/10 00:18:34;;;;;;;;;;;;;;;;;;5055191;28;19940;-27
2022/07/10 00:21:00;;;;;;;;;;;;;;;;;;5055096;28;20300;-23
2022/07/10 00:23:27;;;;;;;;;;;;;;;;;;5054798;28;20023;-25
2022/07/10 00:25:53;;;;;;;;;;;;;;;;;;5055091;28;19987;-23
2022/07/10 00:28:19;;;;;;;;;;;;;;;;;;5055175;28;19915;-24
2022/07/10 00:30:45;;;;;;;;;;;;;;;;;;5055320;28;20306;-28
2022/07/10 00:33:11;;;;;;;;;;;;;;;;;;5055097;28;19912;-24
2022/07/10 00:35:37;;;;;;;;;;;;;;;;;;5055028;28;19913;-24
2022/07/10 00:38:02;;;;;;;;;;;;;;;;;;5054981;28;19982;-24
2022/07/10 00:40:29;;;;;;;;;;;;;;;;;;5054966;28;20007;-23
2022/07/10 00:42:55;;;;;;;;;;;;;;;;;;5053930;28;19939;-23
2022/07/10 00:45:21;;;;;;;;;;;;;;;;;;5055247;28;19909;-23
2022/07/10 00:47:47;;;;;;;;;;;;;;;;;;5054916;28;19916;-26
2022/07/10 00:50:13;;;;;;;;;;;;;;;;;;5054889;28;19909;-27
2022/07/10 00:52:39;;;;;;;;;;;;;;;;;;5055062;28;20248;-24
2022/07/10 00:55:05;;;;;;;;;;;;;;;;;;5054786;28;20007;-23
2022/07/10 00:57:31;;;;;;;;;;;;;;;;;;5055129;28;19955;-25
2022/07/10 00:59:57;;;;;;;;;;;;;;;;;;5055012;28;19917;-24
2022/07/10 01:02:23;;;;;;;;;;;;;;;;;;5054692;28;19917;-28
2022/07/10 01:04:49;;;;;;;;;;;;;;;;;;5055014;28;19912;-27
2022/07/10 01:07:15;;;;;;;;;;;;;;;;;;5055035;28;20335;-25
2022/07/10 01:09:41;;;;;;;;;;;;;;;;;;5054663;28;19956;-24
2022/07/10 01:12:07;;;;;;;;;;;;;;;;;;5054607;28;19913;-24
2022/07/10 01:14:35;;;;;;;;;;;;;;;;;;5054964;28;19909;-24
2022/07/10 01:17:01;;;;;;;;;;;;;;;;;;5054602;28;19924;-23
2022/07/10 01:19:27;;;;;;;;;;;;;;;;;;5054465;28;20015;-23
2022/07/10 01:21:53;;;;;;;;;;;;;;;;;;5054620;28;19999;-23
2022/07/10 01:24:19;;;;;;;;;;;;;;;;;;5054313;28;19928;-23
2022/07/10 01:26:45;;;;;;;;;;;;;;;;;;5054572;28;19913;-28
2022/07/10 01:29:11;;;;;;;;;;;;;;;;;;5054806;28;19912;-28
2022/07/10 01:31:37;;;;;;;;;;;;;;;;;;5054799;28;19920;-24
2022/07/10 01:34:03;;;;;;;;;;;;;;;;;;5055025;28;20421;-23
2022/07/10 01:36:32;;;;;;;;;;;;;;;;;;5058412;28;19952;-23
2022/07/10 01:38:58;;;;;;;;;;;;;;;;;;5058438;28;19908;-25
2022/07/10 01:41:24;;;;;;;;;;;;;;;;;;5057980;28;19916;-26
2022/07/10 01:43:50;;;;;;;;;;;;;;;;;;5058011;28;20363;-26
2022/07/10 01:46:16;;;;;;;;;;;;;;;;;;5058280;28;20036;-24
2022/07/10 01:48:42;;;;;;;;;;;;;;;;;;5057894;28;19921;-24
2022/07/10 01:51:08;;;;;;;;;;;;;;;;;;5058770;28;19955;-24
2022/07/10 01:53:34;;;;;;;;;;;;;;;;;;5058018;28;20005;-28
2022/07/10 01:56:00;;;;;;;;;;;;;;;;;;5058144;28;20332;-23
2022/07/10 01:58:26;;;;;;;;;;;;;;;;;;5057760;28;20264;-27
2022/07/10 02:00:52;;;;;;;;;;;;;;;;;;5057919;28;20239;-27
2022/07/10 02:06:02;;;;;;;;;;;;;;;;;;5057943;28;19924;-26
2022/07/10 02:08:28;;;;;;;;;;;;;;;;;;5057566;28;19913;-25
2022/07/10 02:10:54;;;;;;;;;;;;;;;;;;5057423;28;20000;-27
2022/07/10 02:13:20;;;;;;;;;;;;;;;;;;5057431;28;19940;-24
2022/07/10 02:15:47;;;;;;;;;;;;;;;;;;5057399;28;19913;-24
2022/07/10 02:18:13;;;;;;;;;;;;;;;;;;5057322;28;19916;-27
2022/07/10 02:20:39;;;;;;;;;;;;;;;;;;5056370;28;19951;-24
2022/07/10 02:23:06;;;;;;;;;;;;;;;;;;5057071;28;19919;-25
2022/07/10 02:25:32;;;;;;;;;;;;;;;;;;5057816;28;19943;-30
2022/07/10 02:27:58;;;;;;;;;;;;;;;;;;5056247;28;19912;-26
2022/07/10 02:30:24;;;;;;;;;;;;;;;;;;5057211;28;19909;-24
2022/07/10 02:32:50;;;;;;;;;;;;;;;;;;5056999;28;19923;-24
2022/07/10 02:35:16;;;;;;;;;;;;;;;;;;5057333;28;19987;-24
2022/07/10 02:37:42;;;;;;;;;;;;;;;;;;5056094;28;20369;-25
2022/07/10 02:40:08;;;;;;;;;;;;;;;;;;5056960;28;19952;-29
2022/07/10 02:42:34;;;;;;;;;;;;;;;;;;5056917;28;19940;-24
2022/07/10 02:45:00;;;;;;;;;;;;;;;;;;5056677;28;19916;-24
2022/07/10 02:47:26;;;;;;;;;;;;;;;;;;5056319;28;20324;-27
2022/07/10 02:49:52;;;;;;;;;;;;;;;;;;5056800;28;20359;-27
2022/07/10 02:52:18;;;;;;;;;;;;;;;;;;5056650;28;19913;-24
2022/07/10 02:54:44;;;;;;;;;;;;;;;;;;5055851;28;19909;-32
2022/07/10 02:57:10;;;;;;;;;;;;;;;;;;5056683;28;19963;-24
2022/07/10 02:59:36;;;;;;;;;;;;;;;;;;5056550;28;20275;-24
2022/07/10 03:02:02;;;;;;;;;;;;;;;;;;5056798;28;20007;-23
2022/07/10 03:04:28;;;;;;;;;;;;;;;;;;5056851;28;19913;-26
2022/07/10 03:06:54;;;;;;;;;;;;;;;;;;5056744;28;19920;-26
2022/07/10 03:09:20;;;;;;;;;;;;;;;;;;5056420;28;19913;-24
2022/07/10 03:11:46;;;;;;;;;;;;;;;;;;5055428;28;20351;-24
2022/07/10 03:14:12;;;;;;;;;;;;;;;;;;5056557;28;20008;-25
2022/07/10 03:16:38;;;;;;;;;;;;;;;;;;5056257;28;19928;-28
2022/07/10 03:19:04;;;;;;;;;;;;;;;;;;5056501;28;20374;-24
2022/07/10 03:21:30;;;;;;;;;;;;;;;;;;5056126;28;19924;-26
2022/07/10 03:23:56;;;;;;;;;;;;;;;;;;5056062;28;19920;-24
2022/07/10 03:26:22;;;;;;;;;;;;;;;;;;5056116;28;19970;-24
2022/07/10 03:28:48;;;;;;;;;;;;;;;;;;5056054;28;20310;-24
2022/07/10 03:31:14;;;;;;;;;;;;;;;;;;5055983;28;19916;-26
2022/07/10 03:33:40;;;;;;;;;;;;;;;;;;5056153;28;20347;-27
2022/07/10 03:36:06;;;;;;;;;;;;;;;;;;5056714;28;19924;-24
2022/07/10 03:38:32;;;;;;;;;;;;;;;;;;5055922;28;19970;-28
2022/07/10 03:40:58;;;;;;;;;;;;;;;;;;5055815;28;20259;-27
2022/07/10 03:43:24;;;;;;;;;;;;;;;;;;5055717;28;19920;-28
2022/07/10 03:45:50;;;;;;;;;;;;;;;;;;5055761;28;20395;-26
2022/07/10 03:48:16;;;;;;;;;;;;;;;;;;5055685;28;19995;-24
2022/07/10 03:50:42;;;;;;;;;;;;;;;;;;5056107;28;20002;-25
2022/07/10 03:53:08;;;;;;;;;;;;;;;;;;5055567;28;19917;-27
2022/07/10 03:55:34;;;;;;;;;;;;;;;;;;5055579;28;19931;-28
2022/07/10 03:58:04;;;;;;;;;;;;;;;;;;5055609;28;19917;-24
2022/07/10 04:00:33;;;;;;;;;;;;;;;;;;5055415;28;19925;-25
2022/07/10 04:02:59;;;;;;;;;;;;;;;;;;5055389;28;19943;-27
2022/07/10 04:05:25;;;;;;;;;;;;;;;;;;5055358;28;19913;-24
2022/07/10 04:07:51;;;;;;;;;;;;;;;;;;5055686;28;19912;-24
2022/07/10 04:10:17;;;;;;;;;;;;;;;;;;5055357;28;19913;-26
2022/07/10 04:12:43;;;;;;;;;;;;;;;;;;5055282;28;20228;-28
2022/07/10 04:15:09;;;;;;;;;;;;;;;;;;5055316;28;19920;-29
2022/07/10 04:17:35;;;;;;;;;;;;;;;;;;5055286;28;19912;-25
2022/07/10 04:20:01;;;;;;;;;;;;;;;;;;5055142;28;19924;-24
2022/07/10 04:22:27;;;;;;;;;;;;;;;;;;5055104;28;19962;-26
2022/07/10 04:24:53;;;;;;;;;;;;;;;;;;5054980;28;20364;-28
2022/07/10 04:27:19;;;;;;;;;;;;;;;;;;5055178;28;19978;-24
2022/07/10 04:29:45;;;;;;;;;;;;;;;;;;5055414;28;19923;-24
2022/07/10 04:32:11;;;;;;;;;;;;;;;;;;5055305;28;20240;-24
2022/07/10 04:34:38;;;;;;;;;;;;;;;;;;5055366;28;19924;-27
2022/07/10 04:37:04;;;;;;;;;;;;;;;;;;5055084;28;19920;-25
2022/07/10 04:39:30;;;;;;;;;;;;;;;;;;5054931;28;19913;-24
2022/07/10 04:41:56;;;;;;;;;;;;;;;;;;5055028;28;19916;-23
2022/07/10 04:44:22;;;;;;;;;;;;;;;;;;5055275;28;19917;-24
2022/07/10 04:46:48;;;;;;;;;;;;;;;;;;5055003;28;20306;-24
2022/07/10 04:49:14;;;;;;;;;;;;;;;;;;5054938;28;19913;-26
2022/07/10 04:51:41;;;;;;;;;;;;;;;;;;5054891;28;20260;-24
2022/07/10 04:54:07;;;;;;;;;;;;;;;;;;5054797;28;19919;-27
2022/07/10 04:56:33;;;;;;;;;;;;;;;;;;5055475;28;20000;-26
2022/07/10 04:58:59;;;;;;;;;;;;;;;;;;5055124;28;20262;-24
2022/07/10 05:01:25;;;;;;;;;;;;;;;;;;5054809;28;19923;-24
2022/07/10 05:03:51;;;;;;;;;;;;;;;;;;5054714;28;19913;-30
2022/07/10 05:06:17;;;;;;;;;;;;;;;;;;5055086;28;19947;-25
2022/07/10 05:08:43;;;;;;;;;;;;;;;;;;5054799;28;19917;-28
2022/07/10 05:11:09;;;;;;;;;;;;;;;;;;5058751;28;20225;-24
2022/07/10 05:13:35;;;;;;;;;;;;;;;;;;5058548;28;19958;-25
2022/07/10 05:16:01;;;;;;;;;;;;;;;;;;5058574;28;19916;-24
2022/07/10 05:18:27;;;;;;;;;;;;;;;;;;5057566;28;19913;-24
2022/07/10 05:20:53;;;;;;;;;;;;;;;;;;5058433;28;19912;-27
2022/07/10 05:23:19;;;;;;;;;;;;;;;;;;5057203;28;19958;-24
2022/07/10 05:25:45;;;;;;;;;;;;;;;;;;5058723;28;20003;-25
2022/07/10 05:28:14;;;;;;;;;;;;;;;;;;5058337;28;19943;-24
2022/07/10 05:30:40;;;;;;;;;;;;;;;;;;5058663;28;20251;-26
2022/07/10 05:33:06;;;;;;;;;;;;;;;;;;5058181;28;19963;-27
2022/07/10 05:35:32;;;;;;;;;;;;;;;;;;5057317;28;19924;-28
2022/07/10 05:37:58;;;;;;;;;;;;;;;;;;5058446;28;19923;-26
2022/07/10 05:40:24;;;;;;;;;;;;;;;;;;5058361;28;19923;-24
2022/07/10 05:42:50;;;;;;;;;;;;;;;;;;5057963;28;19963;-28
2022/07/10 05:45:16;;;;;;;;;;;;;;;;;;5058350;28;19917;-25
2022/07/10 05:47:42;;;;;;;;;;;;;;;;;;5057973;28;19916;-23
2022/07/10 05:50:08;;;;;;;;;;;;;;;;;;5058232;28;19909;-24
2022/07/10 05:52:34;;;;;;;;;;;;;;;;;;5058027;28;19923;-24
2022/07/10 05:55:00;;;;;;;;;;;;;;;;;;5057895;28;19919;-26
2022/07/10 05:57:26;;;;;;;;;;;;;;;;;;5057833;28;19924;-24
2022/07/10 05:59:52;;;;;;;;;;;;;;;;;;5057654;28;20023;-26
2022/07/10 06:02:19;;;;;;;;;;;;;;;;;;5057658;28;19920;-25
2022/07/10 06:04:45;;;;;;;;;;;;;;;;;;5057636;28;19999;-27
2022/07/10 06:07:11;;;;;;;;;;;;;;;;;;5057645;28;19913;-26
2022/07/10 06:09:37;;;;;;;;;;;;;;;;;;5057580;28;20369;-27
2022/07/10 06:12:03;;;;;;;;;;;;;;;;;;5057799;28;19916;-26
2022/07/10 06:14:29;;;;;;;;;;;;;;;;;;5057522;28;20387;-24
2022/07/10 06:16:55;;;;;;;;;;;;;;;;;;5057702;28;20374;-25
2022/07/10 06:19:21;;;;;;;;;;;;;;;;;;5057391;28;19912;-24
2022/07/10 06:21:47;;;;;;;;;;;;;;;;;;5057205;28;19928;-26
2022/07/10 06:24:13;;;;;;;;;;;;;;;;;;5057051;28;19921;-29
2022/07/10 06:26:39;;;;;;;;;;;;;;;;;;5057591;28;19913;-24
2022/07/10 06:29:05;;;;;;;;;;;;;;;;;;5057207;28;19913;-26
2022/07/10 06:31:31;;;;;;;;;;;;;;;;;;5057194;28;19978;-24
2022/07/10 06:33:57;;;;;;;;;;;;;;;;;;5056161;28;19920;-27
2022/07/10 06:36:23;;;;;;;;;;;;;;;;;;5057390;28;20331;-24
2022/07/10 06:38:49;;;;;;;;;;;;;;;;;;5057032;28;19913;-24
2022/07/10 06:41:15;;;;;;;;;;;;;;;;;;5056907;28;19913;-24
2022/07/10 06:43:41;;;;;;;;;;;;;;;;;;5056878;28;19913;-28
2022/07/10 06:46:07;;;;;;;;;;;;;;;;;;5056886;28;19908;-24
2022/07/10 06:48:35;;;;;;;;;;;;;;;;;;5056873;28;19913;-25
2022/07/10 06:51:01;;;;;;;;;;;;;;;;;;5056827;28;19924;-23
2022/07/10 06:53:27;;;;;;;;;;;;;;;;;;5056765;28;19909;-25
2022/07/10 06:55:53;;;;;;;;;;;;;;;;;;5055788;28;19991;-24
2022/07/10 06:58:19;;;;;;;;;;;;;;;;;;5056955;28;19924;-23
2022/07/10 07:00:45;;;;;;;;;;;;;;;;;;5056522;28;20007;-24
2022/07/10 07:03:11;;;;;;;;;;;;;;;;;;5056501;28;20028;-25
2022/07/10 07:05:38;;;;;;;;;;;;;;;;;;5056816;28;19920;-24
2022/07/10 07:08:04;;;;;;;;;;;;;;;;;;5056741;28;19913;-23
2022/07/10 07:10:30;;;;;;;;;;;;;;;;;;5056709;28;20328;-24
2022/07/10 07:12:56;;;;;;;;;;;;;;;;;;5056323;28;19962;-26
2022/07/10 07:15:23;;;;;;;;;;;;;;;;;;5056697;28;19913;-23
2022/07/10 07:23:29;;;;;;;;;;;;;;;;;;5056010;28;19927;-23
2022/07/10 07:25:55;;;;;;;;;;;;;;;;;;5056194;28;19948;-24
2022/07/10 07:28:21;;;;;;;;;;;;;;;;;;5056099;28;20306;-23
2022/07/10 07:30:47;;;;;;;;;;;;;;;;;;5056337;28;19909;-25
2022/07/10 07:33:13;;;;;;;;;;;;;;;;;;5055453;28;19959;-24
2022/07/10 07:35:39;;;;;;;;;;;;;;;;;;5055999;28;19923;-23
2022/07/10 07:38:08;;;;;;;;;;;;;;;;;;5056201;28;19917;-25
2022/07/10 07:40:37;;;;;;;;;;;;;;;;;;5055766;28;19943;-23
2022/07/10 07:43:03;;;;;;;;;;;;;;;;;;5055874;28;19912;-23
2022/07/10 07:45:29;;;;;;;;;;;;;;;;;;5056089;28;20332;-24
2022/07/10 07:47:55;;;;;;;;;;;;;;;;;;5055699;28;20374;-26
2022/07/10 07:50:21;;;;;;;;;;;;;;;;;;5055634;28;19913;-24
2022/07/10 07:52:47;;;;;;;;;;;;;;;;;;5055781;28;19924;-26
2022/07/10 07:55:14;;;;;;;;;;;;;;;;;;5055935;28;20252;-27
2022/07/10 07:57:40;;;;;;;;;;;;;;;;;;5055521;28;19912;-24
2022/07/10 08:00:09;;;;;;;;;;;;;;;;;;5055425;28;19913;-23
2022/07/10 08:02:35;;;;;;;;;;;;;;;;;;5055398;28;19913;-24
2022/07/10 08:05:01;;;;;;;;;;;;;;;;;;5055775;28;19913;-23
2022/07/10 08:07:27;;;;;;;;;;;;;;;;;;5055424;28;19917;-24
2022/07/10 08:09:53;;;;;;;;;;;;;;;;;;5055652;28;19908;-24
2022/07/10 08:12:19;;;;;;;;;;;;;;;;;;5055538;28;19948;-24
2022/07/10 08:14:45;;;;;;;;;;;;;;;;;;5055626;28;19913;-24
2022/07/10 08:17:11;;;;;;;;;;;;;;;;;;5055294;28;19908;-24
2022/07/10 08:19:37;;;;;;;;;;;;;;;;;;5055044;28;19995;-24
2022/07/10 08:22:03;;;;;;;;;;;;;;;;;;5055069;28;20049;-25
2022/07/10 08:24:28;;;;;;;;;;;;;;;;;;5055112;28;19921;-25
2022/07/10 08:26:55;;;;;;;;;;;;;;;;;;5055441;28;19992;-25
2022/07/10 08:29:21;;;;;;;;;;;;;;;;;;5055415;28;19915;-25
2022/07/10 08:31:47;;;;;;;;;;;;;;;;;;5055099;28;19966;-25
2022/07/10 08:34:13;;;;;;;;;;;;;;;;;;5055027;28;20314;-23
2022/07/10 08:36:39;;;;;;;;;;;;;;;;;;5055039;28;20422;-24
2022/07/10 08:39:05;;;;;;;;;;;;;;;;;;5054958;28;19970;-24
2022/07/10 08:41:31;;;;;;;;;;;;;;;;;;5055497;28;19960;-25
2022/07/10 08:43:57;;;;;;;;;;;;;;;;;;5055436;28;20022;-26
2022/07/10 08:46:23;;;;;;;;;;;;;;;;;;5059180;28;19908;-23
2022/07/10 08:48:49;;;;;;;;;;;;;;;;;;5059356;28;20355;-25
2022/07/10 08:51:15;;;;;;;;;;;;;;;;;;5058154;28;19920;-29
2022/07/10 08:53:41;;;;;;;;;;;;;;;;;;5058920;28;19952;-23
2022/07/10 08:56:07;;;;;;;;;;;;;;;;;;5058967;28;20014;-24
2022/07/10 08:58:33;;;;;;;;;;;;;;;;;;5058943;28;19920;-31
2022/07/10 09:00:59;;;;;;;;;;;;;;;;;;5059159;28;20256;-25
2022/07/10 09:03:25;;;;;;;;;;;;;;;;;;5058770;28;19967;-24
2022/07/10 09:05:52;;;;;;;;;;;;;;;;;;5058782;28;19920;-24
2022/07/10 09:08:18;;;;;;;;;;;;;;;;;;5057824;28;19966;-28
2022/07/10 09:10:44;;;;;;;;;;;;;;;;;;5058688;28;19978;-26
2022/07/10 09:13:10;;;;;;;;;;;;;;;;;;5058605;28;19909;-24
2022/07/10 09:15:36;;;;;;;;;;;;;;;;;;5058585;28;20360;-23
2022/07/10 09:18:02;;;;;;;;;;;;;;;;;;5058542;28;20012;-24
2022/07/10 09:20:29;;;;;;;;;;;;;;;;;;5058736;28;19913;-24
2022/07/10 09:22:55;;;;;;;;;;;;;;;;;;5058239;28;20011;-24
2022/07/10 09:25:21;;;;;;;;;;;;;;;;;;5058770;28;19944;-29
2022/07/10 09:27:47;;;;;;;;;;;;;;;;;;5058430;28;19920;-23
2022/07/10 09:30:13;;;;;;;;;;;;;;;;;;5058367;28;19913;-24
2022/07/10 09:32:39;;;;;;;;;;;;;;;;;;5058493;28;19913;-28
2022/07/10 09:37:49;;;;;;;;;;;;;;;;;;5058275;28;20367;-24
2022/07/10 09:40:16;;;;;;;;;;;;;;;;;;5058381;28;19916;-25
2022/07/10 09:42:47;;;;;;;;;;;;;;;;;;5058167;28;19923;-27
2022/07/10 09:45:13;;;;;;;;;;;;;;;;;;5058394;28;19963;-24
2022/07/10 09:47:39;;;;;;;;;;;;;;;;;;5057995;28;19913;-24
2022/07/10 09:50:05;;;;;;;;;;;;;;;;;;5058239;28;20000;-24
2022/07/10 09:52:31;;;;;;;;;;;;;;;;;;5057871;28;20268;-27
2022/07/10 09:54:57;;;;;;;;;;;;;;;;;;5056439;28;19919;-25
2022/07/10 09:57:23;;;;;;;;;;;;;;;;;;5058130;28;19917;-25
2022/07/10 09:59:51;;;;;;;;;;;;;;;;;;5057747;28;20332;-24
2022/07/10 10:02:17;;;;;;;;;;;;;;;;;;5057936;28;19917;-27
2022/07/10 10:04:43;;;;;;;;;;;;;;;;;;5057671;28;19909;-25
2022/07/10 10:07:12;;;;;;;;;;;;;;;;;;5057741;28;19956;-26
2022/07/10 10:09:38;;;;;;;;;;;;;;;;;;5057922;28;20241;-25
2022/07/10 10:12:04;;;;;;;;;;;;;;;;;;5057566;28;19916;-24
2022/07/10 10:14:30;;;;;;;;;;;;;;;;;;5057812;28;20241;-27
2022/07/10 10:16:56;;;;;;;;;;;;;;;;;;5058026;28;19913;-25
2022/07/10 10:22:07;;;;;;;;;;;;;;;;;;5057360;28;19923;-27
2022/07/10 10:24:33;;;;;;;;;;;;;;;;;;5057249;28;19927;-28
2022/07/10 10:26:59;;;;;;;;;;;;;;;;;;5057625;28;20282;-26
2022/07/10 10:29:25;;;;;;;;;;;;;;;;;;5056332;28;19970;-26
2022/07/10 10:31:51;;;;;;;;;;;;;;;;;;5057464;28;19913;-28
2022/07/10 10:34:17;;;;;;;;;;;;;;;;;;5057087;28;19999;-26
2022/07/10 10:36:44;;;;;;;;;;;;;;;;;;5057111;28;19912;-24
2022/07/10 10:39:12;;;;;;;;;;;;;;;;;;5057318;28;19974;-24
2022/07/10 10:41:38;;;;;;;;;;;;;;;;;;5056966;28;19912;-27
2022/07/10 10:44:04;;;;;;;;;;;;;;;;;;5056909;28;19920;-25
2022/07/10 10:46:30;;;;;;;;;;;;;;;;;;5057185;28;20393;-25
2022/07/10 10:48:56;;;;;;;;;;;;;;;;;;5056869;28;19909;-26
2022/07/10 10:51:22;;;;;;;;;;;;;;;;;;5057164;28;19913;-24
2022/07/10 10:53:48;;;;;;;;;;;;;;;;;;5056730;28;20225;-26
2022/07/10 10:56:14;;;;;;;;;;;;;;;;;;5056780;28;19915;-26
2022/07/10 10:58:41;;;;;;;;;;;;;;;;;;5056709;28;20279;-25
2022/07/10 11:01:07;;;;;;;;;;;;;;;;;;5056856;28;19913;-24
2022/07/10 11:03:33;;;;;;;;;;;;;;;;;;5056564;28;19913;-24
2022/07/10 11:06:02;;;;;;;;;;;;;;;;;;5056457;28;19916;-24
2022/07/10 11:08:28;;;;;;;;;;;;;;;;;;5056127;28;20395;-24
2022/07/10 11:10:54;;;;;;;;;;;;;;;;;;5056724;28;19956;-24
2022/07/10 11:13:20;;;;;;;;;;;;;;;;;;5056361;28;19909;-26
2022/07/10 11:15:47;;;;;;;;;;;;;;;;;;5056326;28;19924;-24
2022/07/10 11:18:13;;;;;;;;;;;;;;;;;;5056313;28;19936;-24
2022/07/10 11:20:38;;;;;;;;;;;;;;;;;;5056199;28;19971;-27
2022/07/10 11:23:05;;;;;;;;;;;;;;;;;;5056762;28;20273;-24
2022/07/10 11:25:35;;;;;;;;;;;;;;;;;;5056514;28;19916;-25
2022/07/10 11:28:01;;;;;;;;;;;;;;;;;;5056148;28;20011;-25
2022/07/10 11:30:28;;;;;;;;;;;;;;;;;;5056102;28;19995;-24
2022/07/10 11:32:54;;;;;;;;;;;;;;;;;;5055966;28;19912;-27
2022/07/10 11:35:20;;;;;;;;;;;;;;;;;;5056047;28;20306;-25
2022/07/10 11:37:46;;;;;;;;;;;;;;;;;;5056239;28;20236;-31
2022/07/10 11:40:12;;;;;;;;;;;;;;;;;;5055806;28;19936;-23
2022/07/10 11:42:38;;;;;;;;;;;;;;;;;;5055777;28;19908;-24
2022/07/10 11:45:04;;;;;;;;;;;;;;;;;;5055810;28;19913;-24
2022/07/10 11:47:30;;;;;;;;;;;;;;;;;;5055764;28;19919;-28
2022/07/10 11:49:56;;;;;;;;;;;;;;;;;;5055748;28;19970;-23
2022/07/10 11:52:22;;;;;;;;;;;;;;;;;;5055825;28;20015;-27
2022/07/10 11:54:49;;;;;;;;;;;;;;;;;;5055672;28;19948;-24
2022/07/10 11:57:15;;;;;;;;;;;;;;;;;;5055914;28;20339;-27
2022/07/10 11:59:41;;;;;;;;;;;;;;;;;;5055789;28;19924;-25
2022/07/10 12:02:07;;;;;;;;;;;;;;;;;;5055749;28;19913;-25
2022/07/10 12:04:33;;;;;;;;;;;;;;;;;;5055529;28;20336;-25
2022/07/10 12:06:59;;;;;;;;;;;;;;;;;;5055442;28;19920;-24
2022/07/10 12:09:25;;;;;;;;;;;;;;;;;;5055425;28;19963;-25
2022/07/10 12:11:51;;;;;;;;;;;;;;;;;;5054443;28;20229;-25
2022/07/10 12:14:18;;;;;;;;;;;;;;;;;;5055181;28;19920;-24
2022/07/10 12:16:44;;;;;;;;;;;;;;;;;;5055304;28;19947;-25
2022/07/10 12:19:10;;;;;;;;;;;;;;;;;;5055101;28;19920;-24
2022/07/10 12:21:36;;;;;;;;;;;;;;;;;;5055446;28;19986;-24
2022/07/10 12:24:02;;;;;;;;;;;;;;;;;;5054962;28;19928;-29
2022/07/10 12:26:28;;;;;;;;;;;;;;;;;;5055463;28;19909;-25
2022/07/10 12:28:54;;;;;;;;;;;;;;;;;;5055443;28;20255;-27
2022/07/10 12:31:20;;;;;;;;;;;;;;;;;;5055108;28;19909;-24
2022/07/10 12:33:46;;;;;;;;;;;;;;;;;;5054956;28;19920;-24
2022/07/10 12:36:12;;;;;;;;;;;;;;;;;;5054097;28;20007;-28
2022/07/10 12:38:38;;;;;;;;;;;;;;;;;;5054200;28;20229;-24
2022/07/10 12:41:04;;;;;;;;;;;;;;;;;;5054957;28;19959;-26
2022/07/10 12:43:30;;;;;;;;;;;;;;;;;;5054951;28;19909;-27
2022/07/10 12:45:56;;;;;;;;;;;;;;;;;;5054989;28;19913;-25
2022/07/10 12:48:25;;;;;;;;;;;;;;;;;;5054960;28;19936;-25
2022/07/10 12:50:51;;;;;;;;;;;;;;;;;;5054937;28;20314;-24
2022/07/10 12:53:17;;;;;;;;;;;;;;;;;;5055037;28;19909;-24
2022/07/10 12:55:43;;;;;;;;;;;;;;;;;;5054840;28;19913;-24
2022/07/10 12:58:11;;;;;;;;;;;;;;;;;;5054890;28;19959;-27
2022/07/10 13:00:37;;;;;;;;;;;;;;;;;;5054808;28;19917;-26
2022/07/10 13:03:03;;;;;;;;;;;;;;;;;;5053813;28;20015;-25
2022/07/10 13:05:30;;;;;;;;;;;;;;;;;;5054836;28;19909;-29
2022/07/10 13:07:55;;;;;;;;;;;;;;;;;;5054776;28;20229;-26
2022/07/10 13:10:21;;;;;;;;;;;;;;;;;;5053817;28;19913;-25
2022/07/10 13:12:47;;;;;;;;;;;;;;;;;;5054661;28;19921;-24
2022/07/10 13:15:21;;;;;;;;;;;;;;;;;;5054742;28;19909;-25
2022/07/10 13:17:47;;;;;;;;;;;;;;;;;;5054675;28;19978;-24
2022/07/10 13:20:13;;;;;;;;;;;;;;;;;;5054624;28;19949;-25
2022/07/10 13:22:39;;;;;;;;;;;;;;;;;;5054553;28;19983;-26
2022/07/10 13:25:05;;;;;;;;;;;;;;;;;;5054446;28;19956;-25
2022/07/10 13:27:32;;;;;;;;;;;;;;;;;;5054579;28;19920;-24
2022/07/10 13:29:58;;;;;;;;;;;;;;;;;;5055307;28;19908;-25
2022/07/10 13:32:24;;;;;;;;;;;;;;;;;;5058317;28;19930;-24
2022/07/10 13:34:51;;;;;;;;;;;;;;;;;;5058241;28;19913;-25
2022/07/10 13:37:16;;;;;;;;;;;;;;;;;;5058244;28;19913;-24
2022/07/10 13:39:43;;;;;;;;;;;;;;;;;;5057165;28;19909;-27
2022/07/10 13:42:08;;;;;;;;;;;;;;;;;;5058099;28;19919;-25
2022/07/10 13:44:34;;;;;;;;;;;;;;;;;;5058134;28;19938;-24
2022/07/10 13:47:00;;;;;;;;;;;;;;;;;;5058032;28;20267;-24
2022/07/10 13:49:27;;;;;;;;;;;;;;;;;;5058299;28;19913;-24
2022/07/10 13:51:53;;;;;;;;;;;;;;;;;;5059105;28;19909;-26
2022/07/10 13:54:19;;;;;;;;;;;;;;;;;;5057907;28;19912;-25
2022/07/10 13:56:45;;;;;;;;;;;;;;;;;;5057887;28;19913;-24
2022/07/10 13:59:11;;;;;;;;;;;;;;;;;;5057841;28;20000;-28
2022/07/10 14:01:37;;;;;;;;;;;;;;;;;;5057707;28;19923;-25
2022/07/10 14:04:03;;;;;;;;;;;;;;;;;;5057972;28;20354;-25
2022/07/10 14:06:29;;;;;;;;;;;;;;;;;;5057984;28;19970;-24
2022/07/10 14:08:55;;;;;;;;;;;;;;;;;;5057657;28;20347;-26
2022/07/10 14:11:23;;;;;;;;;;;;;;;;;;5056827;28;21249;-29
2022/07/10 14:13:49;;;;;;;;;;;;;;;;;;5057763;28;19913;-24
2022/07/10 14:16:15;;;;;;;;;;;;;;;;;;5057697;28;20363;-28
2022/07/10 14:18:41;;;;;;;;;;;;;;;;;;5057476;28;20233;-26
2022/07/10 14:21:08;;;;;;;;;;;;;;;;;;5058483;28;19913;-24
2022/07/10 14:23:34;;;;;;;;;;;;;;;;;;5057097;28;19924;-25
2022/07/10 14:26:00;;;;;;;;;;;;;;;;;;5057384;28;20302;-27
2022/07/10 14:28:26;;;;;;;;;;;;;;;;;;5057273;28;19913;-23
2022/07/10 14:30:52;;;;;;;;;;;;;;;;;;5057204;28;19970;-26
2022/07/10 14:33:18;;;;;;;;;;;;;;;;;;5057116;28;20375;-24
2022/07/10 14:35:44;;;;;;;;;;;;;;;;;;5057408;28;19920;-25
2022/07/10 14:38:10;;;;;;;;;;;;;;;;;;5057108;28;19971;-25
2022/07/10 14:40:36;;;;;;;;;;;;;;;;;;5056077;28;19921;-26
2022/07/10 14:43:02;;;;;;;;;;;;;;;;;;5056926;28;20409;-25
2022/07/10 14:45:28;;;;;;;;;;;;;;;;;;5057005;28;19908;-25
2022/07/10 14:47:55;;;;;;;;;;;;;;;;;;5056938;28;19943;-24
2022/07/10 14:50:21;;;;;;;;;;;;;;;;;;5057175;28;19913;-26
2022/07/10 14:52:47;;;;;;;;;;;;;;;;;;5056752;28;19920;-25
2022/07/10 14:55:13;;;;;;;;;;;;;;;;;;5056839;28;19952;-27
2022/07/10 14:57:39;;;;;;;;;;;;;;;;;;5056800;28;19920;-26
2022/07/10 15:00:05;;;;;;;;;;;;;;;;;;5055708;28;20015;-27
2022/07/10 15:02:31;;;;;;;;;;;;;;;;;;5056776;28;20016;-28
2022/07/10 15:04:57;;;;;;;;;;;;;;;;;;5056882;28;20321;-24
2022/07/10 15:07:23;;;;;;;;;;;;;;;;;;5056514;28;19913;-24
2022/07/10 15:09:49;;;;;;;;;;;;;;;;;;5055541;28;20061;-25
2022/07/10 15:12:15;;;;;;;;;;;;;;;;;;5056670;28;19913;-24
2022/07/10 15:14:41;;;;;;;;;;;;;;;;;;5056446;28;19917;-28
2022/07/10 15:17:07;;;;;;;;;;;;;;;;;;5056646;28;19912;-24
2022/07/10 15:19:33;;;;;;;;;;;;;;;;;;5056334;28;19909;-23
2022/07/10 15:21:59;;;;;;;;;;;;;;;;;;5056079;28;19916;-30
2022/07/10 15:24:25;;;;;;;;;;;;;;;;;;5056025;28;19999;-26
2022/07/10 15:26:51;;;;;;;;;;;;;;;;;;5056156;28;19941;-27
2022/07/10 15:29:17;;;;;;;;;;;;;;;;;;5055185;28;19966;-24
2022/07/10 15:31:43;;;;;;;;;;;;;;;;;;5056047;28;19943;-24
2022/07/10 15:34:09;;;;;;;;;;;;;;;;;;5055929;28;19920;-25
2022/07/10 15:36:35;;;;;;;;;;;;;;;;;;5056228;28;19909;-26
2022/07/10 15:39:01;;;;;;;;;;;;;;;;;;5055972;28;20363;-25
2022/07/10 15:41:27;;;;;;;;;;;;;;;;;;5055819;28;19978;-24
2022/07/10 15:43:53;;;;;;;;;;;;;;;;;;5055824;28;19973;-24
2022/07/10 15:46:19;;;;;;;;;;;;;;;;;;5055838;28;20007;-26
2022/07/10 15:48:45;;;;;;;;;;;;;;;;;;5055782;28;19912;-24
2022/07/10 15:51:13;;;;;;;;;;;;;;;;;;5056044;28;20335;-25
2022/07/10 15:53:39;;;;;;;;;;;;;;;;;;5055143;28;19912;-24
2022/07/10 15:56:05;;;;;;;;;;;;;;;;;;5055699;28;19915;-25
2022/07/10 15:58:31;;;;;;;;;;;;;;;;;;5055610;28;19912;-27
2022/07/10 16:00:57;;;;;;;;;;;;;;;;;;5055791;28;19912;-24
2022/07/10 16:03:23;;;;;;;;;;;;;;;;;;5055468;28;20404;-25
2022/07/10 16:05:49;;;;;;;;;;;;;;;;;;5054578;28;19962;-24
2022/07/10 16:08:17;;;;;;;;;;;;;;;;;;5055692;28;19913;-24
2022/07/10 16:10:43;;;;;;;;;;;;;;;;;;5055414;28;19967;-26
2022/07/10 16:13:11;;;;;;;;;;;;;;;;;;5055325;28;19916;-25
2022/07/10 16:15:37;;;;;;;;;;;;;;;;;;5055391;28;19917;-27
2022/07/10 16:18:03;;;;;;;;;;;;;;;;;;5055336;28;20050;-26
2022/07/10 16:20:29;;;;;;;;;;;;;;;;;;5055488;28;20423;-24
2022/07/10 16:22:56;;;;;;;;;;;;;;;;;;5055008;28;19951;-24
2022/07/10 16:28:06;;;;;;;;;;;;;;;;;;5055212;28;20025;-24
2022/07/10 16:30:32;;;;;;;;;;;;;;;;;;5055177;28;19920;-24
2022/07/10 16:32:58;;;;;;;;;;;;;;;;;;5054137;28;20031;-26
2022/07/10 16:35:24;;;;;;;;;;;;;;;;;;5055129;28;19944;-25
2022/07/10 16:37:50;;;;;;;;;;;;;;;;;;5055075;28;19960;-25
2022/07/10 16:40:16;;;;;;;;;;;;;;;;;;5054991;28;20003;-24
2022/07/10 16:42:42;;;;;;;;;;;;;;;;;;5054939;28;19923;-24
2022/07/10 16:45:09;;;;;;;;;;;;;;;;;;5055051;28;19909;-26
2022/07/10 16:47:35;;;;;;;;;;;;;;;;;;5055293;28;19923;-27
2022/07/10 16:50:01;;;;;;;;;;;;;;;;;;5054996;28;19913;-24
2022/07/10 16:52:27;;;;;;;;;;;;;;;;;;5055099;28;19924;-24
2022/07/10 16:54:53;;;;;;;;;;;;;;;;;;5054023;28;20374;-24